Terminal Aerodrome Forecast
Issued by NWS Mt. Holly, NJ

Home | Current Version | Previous Version | Text Only | Print | Product List | Glossary On
Versions: 1 2 3 4 5 6 7 8 9 10 11 12 13 14 15 16
186
FTUS41 KPHI 271345 AAA
TAFACY
TAF AMD
KACY 271345Z 2714/2812 29008KT P6SM OVC020
     FM271600 25007KT P6SM SCT020 BKN050
     FM272000 21006KT P6SM BKN050
     FM280000 VRB03KT P6SM SKC=

USA.gov is the U.S. government's official web portal to all federal, state and local government web resources and services.